sensor_id;sensor_type;location;lat;lon;timestamp;P1;durP1;ratioP1;P2;durP2;ratioP2
26654;SDS011;14278;50.784;4.630;2023-04-08T00:00:55;2.27;;;1.87;;
26654;SDS011;14278;50.784;4.630;2023-04-08T00:03:21;3.10;;;1.80;;
26654;SDS011;14278;50.784;4.630;2023-04-08T00:05:49;4.93;;;2.43;;
26654;SDS011;14278;50.784;4.630;2023-04-08T00:08:15;2.47;;;2.17;;
26654;SDS011;14278;50.784;4.630;2023-04-08T00:10:41;4.07;;;2.20;;
26654;SDS011;14278;50.784;4.630;2023-04-08T00:13:07;1.97;;;1.47;;
26654;SDS011;14278;50.784;4.630;2023-04-08T00:15:33;3.43;;;1.80;;
26654;SDS011;14278;50.784;4.630;2023-04-08T00:17:59;2.40;;;1.70;;
26654;SDS011;14278;50.784;4.630;2023-04-08T00:20:25;2.50;;;1.87;;
26654;SDS011;14278;50.784;4.630;2023-04-08T00:22:50;1.80;;;1.67;;
26654;SDS011;14278;50.784;4.630;2023-04-08T00:25:17;1.50;;;1.40;;
26654;SDS011;14278;50.784;4.630;2023-04-08T00:27:42;7.17;;;2.47;;
26654;SDS011;14278;50.784;4.630;2023-04-08T00:30:08;3.57;;;1.93;;
26654;SDS011;14278;50.784;4.630;2023-04-08T00:32:35;3.80;;;2.00;;
26654;SDS011;14278;50.784;4.630;2023-04-08T00:35:01;1.67;;;1.57;;
26654;SDS011;14278;50.784;4.630;2023-04-08T00:37:28;3.20;;;1.83;;
26654;SDS011;14278;50.784;4.630;2023-04-08T00:39:55;3.27;;;2.10;;
26654;SDS011;14278;50.784;4.630;2023-04-08T00:42:21;5.70;;;2.37;;
26654;SDS011;14278;50.784;4.630;2023-04-08T00:44:47;2.47;;;1.70;;
26654;SDS011;14278;50.784;4.630;2023-04-08T00:47:15;2.67;;;2.00;;
26654;SDS011;14278;50.784;4.630;2023-04-08T00:49:42;2.30;;;2.10;;
26654;SDS011;14278;50.784;4.630;2023-04-08T00:52:08;2.67;;;2.17;;
26654;SDS011;14278;50.784;4.630;2023-04-08T00:54:35;2.10;;;1.87;;
26654;SDS011;14278;50.784;4.630;2023-04-08T00:57:01;1.67;;;1.50;;
26654;SDS011;14278;50.784;4.630;2023-04-08T00:59:29;2.57;;;2.07;;
26654;SDS011;14278;50.784;4.630;2023-04-08T01:07:34;1.67;;;1.43;;
26654;SDS011;14278;50.784;4.630;2023-04-08T01:10:08;5.47;;;2.27;;
26654;SDS011;14278;50.784;4.630;2023-04-08T01:12:47;2.13;;;1.93;;
26654;SDS011;14278;50.784;4.630;2023-04-08T01:15:19;5.83;;;2.50;;
26654;SDS011;14278;50.784;4.630;2023-04-08T01:17:46;5.47;;;2.87;;
26654;SDS011;14278;50.784;4.630;2023-04-08T01:20:14;2.13;;;1.67;;
26654;SDS011;14278;50.784;4.630;2023-04-08T01:22:54;3.27;;;1.90;;
26654;SDS011;14278;50.784;4.630;2023-04-08T01:25:35;3.47;;;2.10;;
26654;SDS011;14278;50.784;4.630;2023-04-08T01:28:12;2.40;;;1.83;;
26654;SDS011;14278;50.784;4.630;2023-04-08T01:30:41;6.73;;;2.13;;
26654;SDS011;14278;50.784;4.630;2023-04-08T01:33:12;1.80;;;1.67;;
26654;SDS011;14278;50.784;4.630;2023-04-08T01:35:40;6.17;;;2.30;;
26654;SDS011;14278;50.784;4.630;2023-04-08T01:38:07;4.57;;;1.83;;
26654;SDS011;14278;50.784;4.630;2023-04-08T01:40:34;9.50;;;2.23;;
26654;SDS011;14278;50.784;4.630;2023-04-08T01:43:03;3.00;;;2.03;;
26654;SDS011;14278;50.784;4.630;2023-04-08T01:45:32;5.47;;;2.00;;
26654;SDS011;14278;50.784;4.630;2023-04-08T01:47:59;4.33;;;2.13;;
26654;SDS011;14278;50.784;4.630;2023-04-08T01:50:26;1.83;;;1.73;;
26654;SDS011;14278;50.784;4.630;2023-04-08T01:52:53;2.20;;;2.00;;
26654;SDS011;14278;50.784;4.630;2023-04-08T01:55:20;4.67;;;2.40;;
26654;SDS011;14278;50.784;4.630;2023-04-08T01:57:49;2.27;;;2.07;;
26654;SDS011;14278;50.784;4.630;2023-04-08T02:00:22;4.20;;;2.23;;
26654;SDS011;14278;50.784;4.630;2023-04-08T02:02:50;3.17;;;1.90;;
26654;SDS011;14278;50.784;4.630;2023-04-08T02:05:17;3.10;;;1.87;;
26654;SDS011;14278;50.784;4.630;2023-04-08T02:07:43;2.47;;;2.10;;
26654;SDS011;14278;50.784;4.630;2023-04-08T02:10:12;6.57;;;2.63;;
26654;SDS011;14278;50.784;4.630;2023-04-08T02:12:38;3.97;;;1.80;;
26654;SDS011;14278;50.784;4.630;2023-04-08T02:15:04;10.53;;;2.50;;
26654;SDS011;14278;50.784;4.630;2023-04-08T02:17:32;5.00;;;2.20;;
26654;SDS011;14278;50.784;4.630;2023-04-08T02:20:33;2.17;;;2.00;;
26654;SDS011;14278;50.784;4.630;2023-04-08T02:23:06;4.23;;;2.27;;
26654;SDS011;14278;50.784;4.630;2023-04-08T02:25:39;2.13;;;1.50;;
26654;SDS011;14278;50.784;4.630;2023-04-08T02:28:08;5.67;;;2.13;;
26654;SDS011;14278;50.784;4.630;2023-04-08T02:30:36;2.20;;;1.80;;
26654;SDS011;14278;50.784;4.630;2023-04-08T02:33:05;3.20;;;1.90;;
26654;SDS011;14278;50.784;4.630;2023-04-08T02:35:32;1.83;;;1.73;;
26654;SDS011;14278;50.784;4.630;2023-04-08T02:37:59;6.43;;;2.63;;
26654;SDS011;14278;50.784;4.630;2023-04-08T02:40:26;5.63;;;2.40;;
26654;SDS011;14278;50.784;4.630;2023-04-08T02:42:55;3.00;;;1.93;;
26654;SDS011;14278;50.784;4.630;2023-04-08T02:45:22;3.77;;;2.57;;
26654;SDS011;14278;50.784;4.630;2023-04-08T02:47:56;2.87;;;2.07;;
26654;SDS011;14278;50.784;4.630;2023-04-08T02:50:24;4.20;;;2.30;;
26654;SDS011;14278;50.784;4.630;2023-04-08T02:52:50;8.90;;;2.47;;
26654;SDS011;14278;50.784;4.630;2023-04-08T02:55:19;4.03;;;2.30;;
26654;SDS011;14278;50.784;4.630;2023-04-08T02:57:45;2.60;;;2.30;;
26654;SDS011;14278;50.784;4.630;2023-04-08T03:00:12;3.10;;;2.27;;
26654;SDS011;14278;50.784;4.630;2023-04-08T03:02:38;4.67;;;2.20;;
26654;SDS011;14278;50.784;4.630;2023-04-08T03:05:04;2.73;;;2.37;;
26654;SDS011;14278;50.784;4.630;2023-04-08T03:07:31;8.60;;;2.50;;
26654;SDS011;14278;50.784;4.630;2023-04-08T03:09:57;1.97;;;1.77;;
26654;SDS011;14278;50.784;4.630;2023-04-08T03:12:23;2.10;;;1.70;;
26654;SDS011;14278;50.784;4.630;2023-04-08T03:14:51;4.53;;;1.77;;
26654;SDS011;14278;50.784;4.630;2023-04-08T03:17:17;6.27;;;2.20;;
26654;SDS011;14278;50.784;4.630;2023-04-08T03:19:43;2.43;;;2.23;;
26654;SDS011;14278;50.784;4.630;2023-04-08T03:22:09;3.77;;;2.67;;
26654;SDS011;14278;50.784;4.630;2023-04-08T03:24:35;2.53;;;2.30;;
26654;SDS011;14278;50.784;4.630;2023-04-08T03:27:01;3.47;;;2.10;;
26654;SDS011;14278;50.784;4.630;2023-04-08T03:29:28;4.17;;;3.00;;
26654;SDS011;14278;50.784;4.630;2023-04-08T03:31:53;7.53;;;1.83;;
26654;SDS011;14278;50.784;4.630;2023-04-08T03:34:19;4.20;;;2.47;;
26654;SDS011;14278;50.784;4.630;2023-04-08T03:36:45;5.87;;;2.70;;
26654;SDS011;14278;50.784;4.630;2023-04-08T03:39:11;2.97;;;2.13;;
26654;SDS011;14278;50.784;4.630;2023-04-08T03:41:37;3.17;;;2.43;;
26654;SDS011;14278;50.784;4.630;2023-04-08T03:44:03;2.97;;;2.50;;
26654;SDS011;14278;50.784;4.630;2023-04-08T03:46:29;7.07;;;2.60;;
26654;SDS011;14278;50.784;4.630;2023-04-08T03:48:55;2.93;;;2.47;;
26654;SDS011;14278;50.784;4.630;2023-04-08T03:51:21;2.90;;;2.40;;
26654;SDS011;14278;50.784;4.630;2023-04-08T03:53:47;3.20;;;2.73;;
26654;SDS011;14278;50.784;4.630;2023-04-08T03:56:13;8.30;;;2.10;;
26654;SDS011;14278;50.784;4.630;2023-04-08T03:58:39;5.97;;;2.60;;
26654;SDS011;14278;50.784;4.630;2023-04-08T04:01:05;3.27;;;2.23;;
26654;SDS011;14278;50.784;4.630;2023-04-08T04:03:31;11.33;;;2.50;;
26654;SDS011;14278;50.784;4.630;2023-04-08T04:05:57;2.43;;;2.20;;
26654;SDS011;14278;50.784;4.630;2023-04-08T04:08:23;4.23;;;2.43;;
26654;SDS011;14278;50.784;4.630;2023-04-08T04:10:49;4.23;;;3.13;;
26654;SDS011;14278;50.784;4.630;2023-04-08T04:13:15;2.93;;;2.57;;
26654;SDS011;14278;50.784;4.630;2023-04-08T04:15:41;6.80;;;2.83;;
26654;SDS011;14278;50.784;4.630;2023-04-08T04:18:08;2.87;;;2.57;;
26654;SDS011;14278;50.784;4.630;2023-04-08T04:20:33;4.97;;;2.57;;
26654;SDS011;14278;50.784;4.630;2023-04-08T04:23:00;5.53;;;3.10;;
26654;SDS011;14278;50.784;4.630;2023-04-08T04:25:26;4.50;;;2.97;;
26654;SDS011;14278;50.784;4.630;2023-04-08T04:27:51;4.10;;;2.87;;
26654;SDS011;14278;50.784;4.630;2023-04-08T04:30:18;3.70;;;3.13;;
26654;SDS011;14278;50.784;4.630;2023-04-08T04:32:44;3.87;;;3.57;;
26654;SDS011;14278;50.784;4.630;2023-04-08T04:35:10;4.47;;;3.10;;
26654;SDS011;14278;50.784;4.630;2023-04-08T04:37:36;3.37;;;3.00;;
26654;SDS011;14278;50.784;4.630;2023-04-08T04:40:03;5.67;;;3.40;;
26654;SDS011;14278;50.784;4.630;2023-04-08T04:42:30;4.43;;;3.17;;
26654;SDS011;14278;50.784;4.630;2023-04-08T04:44:57;5.30;;;3.53;;
26654;SDS011;14278;50.784;4.630;2023-04-08T04:47:23;5.40;;;3.90;;
26654;SDS011;14278;50.784;4.630;2023-04-08T04:49:49;6.57;;;4.07;;
26654;SDS011;14278;50.784;4.630;2023-04-08T04:52:15;5.03;;;3.20;;
26654;SDS011;14278;50.784;4.630;2023-04-08T04:54:42;7.57;;;4.27;;
26654;SDS011;14278;50.784;4.630;2023-04-08T04:57:07;13.03;;;4.40;;
26654;SDS011;14278;50.784;4.630;2023-04-08T04:59:35;4.57;;;3.67;;
26654;SDS011;14278;50.784;4.630;2023-04-08T05:02:01;7.40;;;3.63;;
26654;SDS011;14278;50.784;4.630;2023-04-08T05:04:27;4.80;;;3.57;;
26654;SDS011;14278;50.784;4.630;2023-04-08T05:06:53;5.33;;;3.53;;
26654;SDS011;14278;50.784;4.630;2023-04-08T05:09:19;4.40;;;3.27;;
26654;SDS011;14278;50.784;4.630;2023-04-08T05:11:45;8.00;;;3.87;;
26654;SDS011;14278;50.784;4.630;2023-04-08T05:14:11;8.30;;;4.10;;
26654;SDS011;14278;50.784;4.630;2023-04-08T05:16:37;4.17;;;3.70;;
26654;SDS011;14278;50.784;4.630;2023-04-08T05:19:03;10.10;;;4.00;;
26654;SDS011;14278;50.784;4.630;2023-04-08T05:21:29;4.83;;;3.60;;
26654;SDS011;14278;50.784;4.630;2023-04-08T05:23:56;4.67;;;3.60;;
26654;SDS011;14278;50.784;4.630;2023-04-08T05:26:22;6.83;;;4.00;;
26654;SDS011;14278;50.784;4.630;2023-04-08T05:28:48;15.83;;;4.50;;
26654;SDS011;14278;50.784;4.630;2023-04-08T05:31:18;10.77;;;4.50;;
26654;SDS011;14278;50.784;4.630;2023-04-08T05:33:44;6.70;;;4.27;;
26654;SDS011;14278;50.784;4.630;2023-04-08T05:36:11;6.43;;;4.50;;
26654;SDS011;14278;50.784;4.630;2023-04-08T05:38:37;6.10;;;4.43;;
26654;SDS011;14278;50.784;4.630;2023-04-08T05:41:04;9.50;;;4.40;;
26654;SDS011;14278;50.784;4.630;2023-04-08T05:43:31;5.13;;;4.17;;
26654;SDS011;14278;50.784;4.630;2023-04-08T05:45:57;6.33;;;5.00;;
26654;SDS011;14278;50.784;4.630;2023-04-08T05:48:23;6.53;;;4.37;;
26654;SDS011;14278;50.784;4.630;2023-04-08T05:50:49;12.37;;;4.37;;
26654;SDS011;14278;50.784;4.630;2023-04-08T05:53:15;5.57;;;4.73;;
26654;SDS011;14278;50.784;4.630;2023-04-08T05:55:41;7.43;;;5.27;;
26654;SDS011;14278;50.784;4.630;2023-04-08T05:58:07;9.20;;;5.23;;
26654;SDS011;14278;50.784;4.630;2023-04-08T06:00:33;6.60;;;4.37;;
26654;SDS011;14278;50.784;4.630;2023-04-08T06:02:59;8.30;;;5.23;;
26654;SDS011;14278;50.784;4.630;2023-04-08T06:05:25;12.50;;;4.77;;
26654;SDS011;14278;50.784;4.630;2023-04-08T06:07:51;6.60;;;4.63;;
26654;SDS011;14278;50.784;4.630;2023-04-08T06:10:17;7.63;;;4.93;;
26654;SDS011;14278;50.784;4.630;2023-04-08T06:12:43;7.97;;;4.60;;
26654;SDS011;14278;50.784;4.630;2023-04-08T06:15:08;7.77;;;4.73;;
26654;SDS011;14278;50.784;4.630;2023-04-08T06:17:35;7.47;;;5.80;;
26654;SDS011;14278;50.784;4.630;2023-04-08T06:20:02;9.00;;;5.40;;
26654;SDS011;14278;50.784;4.630;2023-04-08T06:22:28;8.90;;;5.70;;
26654;SDS011;14278;50.784;4.630;2023-04-08T06:24:54;8.93;;;5.97;;
26654;SDS011;14278;50.784;4.630;2023-04-08T06:27:20;8.73;;;5.93;;
26654;SDS011;14278;50.784;4.630;2023-04-08T06:29:46;7.90;;;5.87;;
26654;SDS011;14278;50.784;4.630;2023-04-08T06:32:12;15.23;;;6.30;;
26654;SDS011;14278;50.784;4.630;2023-04-08T06:34:39;12.37;;;7.00;;
26654;SDS011;14278;50.784;4.630;2023-04-08T06:37:05;15.00;;;6.80;;
26654;SDS011;14278;50.784;4.630;2023-04-08T06:39:31;9.13;;;6.60;;
26654;SDS011;14278;50.784;4.630;2023-04-08T06:41:57;8.83;;;6.73;;
26654;SDS011;14278;50.784;4.630;2023-04-08T06:44:23;10.50;;;6.40;;
26654;SDS011;14278;50.784;4.630;2023-04-08T06:46:49;11.30;;;7.43;;
26654;SDS011;14278;50.784;4.630;2023-04-08T06:49:15;9.40;;;6.43;;
26654;SDS011;14278;50.784;4.630;2023-04-08T06:51:41;8.30;;;5.70;;
26654;SDS011;14278;50.784;4.630;2023-04-08T06:54:07;9.70;;;6.57;;
26654;SDS011;14278;50.784;4.630;2023-04-08T06:56:34;14.03;;;7.90;;
26654;SDS011;14278;50.784;4.630;2023-04-08T06:59:00;12.80;;;6.90;;
26654;SDS011;14278;50.784;4.630;2023-04-08T07:01:27;10.83;;;6.70;;
26654;SDS011;14278;50.784;4.630;2023-04-08T07:03:53;11.77;;;7.00;;
26654;SDS011;14278;50.784;4.630;2023-04-08T07:06:19;11.67;;;7.73;;
26654;SDS011;14278;50.784;4.630;2023-04-08T07:08:45;12.33;;;6.13;;
26654;SDS011;14278;50.784;4.630;2023-04-08T07:11:11;9.03;;;5.83;;
26654;SDS011;14278;50.784;4.630;2023-04-08T07:13:37;11.07;;;6.57;;
26654;SDS011;14278;50.784;4.630;2023-04-08T07:16:03;8.57;;;5.97;;
26654;SDS011;14278;50.784;4.630;2023-04-08T07:18:29;12.97;;;6.97;;
26654;SDS011;14278;50.784;4.630;2023-04-08T07:20:55;12.00;;;7.17;;
26654;SDS011;14278;50.784;4.630;2023-04-08T07:23:21;11.70;;;7.23;;
26654;SDS011;14278;50.784;4.630;2023-04-08T07:25:47;12.53;;;6.90;;
26654;SDS011;14278;50.784;4.630;2023-04-08T07:28:13;10.47;;;7.13;;
26654;SDS011;14278;50.784;4.630;2023-04-08T07:30:39;10.57;;;6.90;;
26654;SDS011;14278;50.784;4.630;2023-04-08T07:33:05;14.03;;;7.33;;
26654;SDS011;14278;50.784;4.630;2023-04-08T07:35:32;10.07;;;6.30;;
26654;SDS011;14278;50.784;4.630;2023-04-08T07:37:58;13.60;;;7.13;;
26654;SDS011;14278;50.784;4.630;2023-04-08T07:40:24;9.97;;;6.77;;
26654;SDS011;14278;50.784;4.630;2023-04-08T07:42:50;11.37;;;7.00;;
26654;SDS011;14278;50.784;4.630;2023-04-08T07:45:17;11.53;;;5.83;;
26654;SDS011;14278;50.784;4.630;2023-04-08T07:47:43;10.00;;;6.60;;
26654;SDS011;14278;50.784;4.630;2023-04-08T07:50:08;13.23;;;6.23;;
26654;SDS011;14278;50.784;4.630;2023-04-08T07:52:35;11.47;;;6.27;;
26654;SDS011;14278;50.784;4.630;2023-04-08T07:55:01;7.40;;;5.17;;
26654;SDS011;14278;50.784;4.630;2023-04-08T07:57:27;7.67;;;6.13;;
26654;SDS011;14278;50.784;4.630;2023-04-08T07:59:53;7.47;;;5.00;;
26654;SDS011;14278;50.784;4.630;2023-04-08T08:02:18;8.43;;;5.20;;
26654;SDS011;14278;50.784;4.630;2023-04-08T08:04:44;6.73;;;5.33;;
26654;SDS011;14278;50.784;4.630;2023-04-08T08:07:10;12.13;;;6.13;;
26654;SDS011;14278;50.784;4.630;2023-04-08T08:09:36;13.57;;;5.90;;
26654;SDS011;14278;50.784;4.630;2023-04-08T08:12:02;7.43;;;5.50;;
26654;SDS011;14278;50.784;4.630;2023-04-08T08:14:28;6.47;;;5.00;;
26654;SDS011;14278;50.784;4.630;2023-04-08T08:16:54;7.47;;;5.20;;
26654;SDS011;14278;50.784;4.630;2023-04-08T08:19:21;6.27;;;4.70;;
26654;SDS011;14278;50.784;4.630;2023-04-08T08:21:47;8.07;;;5.83;;
26654;SDS011;14278;50.784;4.630;2023-04-08T08:24:13;4.77;;;3.90;;
26654;SDS011;14278;50.784;4.630;2023-04-08T08:26:40;7.37;;;4.83;;
26654;SDS011;14278;50.784;4.630;2023-04-08T08:29:06;6.23;;;5.00;;
26654;SDS011;14278;50.784;4.630;2023-04-08T08:31:33;36.13;;;26.77;;
26654;SDS011;14278;50.784;4.630;2023-04-08T08:33:59;20.40;;;15.30;;
26654;SDS011;14278;50.784;4.630;2023-04-08T08:36:25;8.67;;;5.90;;
26654;SDS011;14278;50.784;4.630;2023-04-08T08:38:53;7.27;;;4.67;;
26654;SDS011;14278;50.784;4.630;2023-04-08T08:41:19;4.97;;;4.43;;
26654;SDS011;14278;50.784;4.630;2023-04-08T08:43:46;8.93;;;4.00;;
26654;SDS011;14278;50.784;4.630;2023-04-08T08:46:14;4.20;;;3.80;;
26654;SDS011;14278;50.784;4.630;2023-04-08T08:48:41;5.50;;;4.13;;
26654;SDS011;14278;50.784;4.630;2023-04-08T08:51:08;5.17;;;4.07;;
26654;SDS011;14278;50.784;4.630;2023-04-08T08:53:35;10.83;;;3.80;;
26654;SDS011;14278;50.784;4.630;2023-04-08T08:56:01;9.20;;;5.00;;
26654;SDS011;14278;50.784;4.630;2023-04-08T08:58:27;4.53;;;3.83;;
26654;SDS011;14278;50.784;4.630;2023-04-08T09:00:53;3.93;;;3.53;;
26654;SDS011;14278;50.784;4.630;2023-04-08T09:03:20;3.83;;;3.43;;
26654;SDS011;14278;50.784;4.630;2023-04-08T09:05:48;3.10;;;2.80;;
26654;SDS011;14278;50.784;4.630;2023-04-08T09:08:34;5.17;;;3.23;;
26654;SDS011;14278;50.784;4.630;2023-04-08T09:13:37;4.57;;;3.60;;
26654;SDS011;14278;50.784;4.630;2023-04-08T09:16:03;4.27;;;3.57;;
26654;SDS011;14278;50.784;4.630;2023-04-08T09:18:31;6.17;;;3.97;;
26654;SDS011;14278;50.784;4.630;2023-04-08T09:21:01;4.50;;;3.40;;
26654;SDS011;14278;50.784;4.630;2023-04-08T09:23:38;5.20;;;4.07;;
26654;SDS011;14278;50.784;4.630;2023-04-08T09:26:08;57.50;;;27.20;;
26654;SDS011;14278;50.784;4.630;2023-04-08T09:28:36;12.60;;;7.57;;
26654;SDS011;14278;50.784;4.630;2023-04-08T09:33:51;5.57;;;3.77;;
26654;SDS011;14278;50.784;4.630;2023-04-08T09:36:19;15.47;;;3.37;;
26654;SDS011;14278;50.784;4.630;2023-04-08T09:38:45;3.83;;;3.00;;
26654;SDS011;14278;50.784;4.630;2023-04-08T09:41:12;4.97;;;3.00;;
26654;SDS011;14278;50.784;4.630;2023-04-08T09:43:43;4.20;;;3.00;;
26654;SDS011;14278;50.784;4.630;2023-04-08T09:46:14;4.03;;;3.20;;
26654;SDS011;14278;50.784;4.630;2023-04-08T09:48:48;5.40;;;2.97;;
26654;SDS011;14278;50.784;4.630;2023-04-08T09:51:18;3.30;;;2.63;;
26654;SDS011;14278;50.784;4.630;2023-04-08T09:53:46;2.30;;;2.10;;
26654;SDS011;14278;50.784;4.630;2023-04-08T09:56:14;2.97;;;2.23;;
26654;SDS011;14278;50.784;4.630;2023-04-08T10:01:36;2.13;;;2.03;;
26654;SDS011;14278;50.784;4.630;2023-04-08T10:04:08;2.93;;;2.10;;
26654;SDS011;14278;50.784;4.630;2023-04-08T10:06:39;1.83;;;1.73;;
26654;SDS011;14278;50.784;4.630;2023-04-08T10:09:06;2.83;;;1.93;;
26654;SDS011;14278;50.784;4.630;2023-04-08T10:11:32;2.27;;;2.07;;
26654;SDS011;14278;50.784;4.630;2023-04-08T10:14:00;3.50;;;2.47;;
26654;SDS011;14278;50.784;4.630;2023-04-08T10:16:27;4.63;;;1.83;;
26654;SDS011;14278;50.784;4.630;2023-04-08T10:18:53;2.27;;;2.00;;
26654;SDS011;14278;50.784;4.630;2023-04-08T10:24:12;1.90;;;1.80;;
26654;SDS011;14278;50.784;4.630;2023-04-08T10:26:39;2.73;;;2.20;;
26654;SDS011;14278;50.784;4.630;2023-04-08T10:31:41;1.90;;;1.67;;
26654;SDS011;14278;50.784;4.630;2023-04-08T10:34:14;1.33;;;1.27;;
26654;SDS011;14278;50.784;4.630;2023-04-08T10:36:44;1.90;;;1.70;;
26654;SDS011;14278;50.784;4.630;2023-04-08T10:39:14;2.23;;;1.40;;
26654;SDS011;14278;50.784;4.630;2023-04-08T10:41:41;1.43;;;1.33;;
26654;SDS011;14278;50.784;4.630;2023-04-08T10:44:16;1.80;;;1.70;;
26654;SDS011;14278;50.784;4.630;2023-04-08T10:46:46;4.27;;;1.87;;
26654;SDS011;14278;50.784;4.630;2023-04-08T10:49:13;3.40;;;1.87;;
26654;SDS011;14278;50.784;4.630;2023-04-08T10:51:40;3.07;;;2.30;;
26654;SDS011;14278;50.784;4.630;2023-04-08T10:54:08;2.33;;;1.77;;
26654;SDS011;14278;50.784;4.630;2023-04-08T10:56:42;2.60;;;2.03;;
26654;SDS011;14278;50.784;4.630;2023-04-08T10:59:16;6.13;;;1.90;;
26654;SDS011;14278;50.784;4.630;2023-04-08T11:01:51;1.73;;;1.63;;
26654;SDS011;14278;50.784;4.630;2023-04-08T11:04:17;2.67;;;1.87;;
26654;SDS011;14278;50.784;4.630;2023-04-08T11:06:44;1.60;;;1.50;;
26654;SDS011;14278;50.784;4.630;2023-04-08T11:09:11;1.83;;;1.65;;
26654;SDS011;14278;50.784;4.630;2023-04-08T11:11:39;1.70;;;1.60;;
26654;SDS011;14278;50.784;4.630;2023-04-08T11:14:06;8.55;;;1.85;;
26654;SDS011;14278;50.784;4.630;2023-04-08T11:16:33;4.70;;;1.38;;
26654;SDS011;14278;50.784;4.630;2023-04-08T11:19:03;1.92;;;1.52;;
26654;SDS011;14278;50.784;4.630;2023-04-08T11:21:30;3.10;;;1.85;;
26654;SDS011;14278;50.784;4.630;2023-04-08T11:23:57;2.77;;;2.13;;
26654;SDS011;14278;50.784;4.630;2023-04-08T11:26:24;1.90;;;1.80;;
26654;SDS011;14278;50.784;4.630;2023-04-08T11:28:51;2.97;;;2.37;;
26654;SDS011;14278;50.784;4.630;2023-04-08T11:31:18;2.80;;;2.53;;
26654;SDS011;14278;50.784;4.630;2023-04-08T11:33:46;5.57;;;3.90;;
26654;SDS011;14278;50.784;4.630;2023-04-08T11:36:13;11.57;;;3.60;;
26654;SDS011;14278;50.784;4.630;2023-04-08T11:38:42;2.77;;;2.43;;
26654;SDS011;14278;50.784;4.630;2023-04-08T11:41:08;2.50;;;2.30;;
26654;SDS011;14278;50.784;4.630;2023-04-08T11:43:36;2.53;;;2.33;;
26654;SDS011;14278;50.784;4.630;2023-04-08T11:46:09;4.10;;;2.40;;
26654;SDS011;14278;50.784;4.630;2023-04-08T11:48:36;4.43;;;2.70;;
26654;SDS011;14278;50.784;4.630;2023-04-08T11:51:03;3.40;;;2.70;;
26654;SDS011;14278;50.784;4.630;2023-04-08T11:53:32;2.73;;;2.30;;
26654;SDS011;14278;50.784;4.630;2023-04-08T11:56:14;4.53;;;3.10;;
26654;SDS011;14278;50.784;4.630;2023-04-08T11:58:43;5.03;;;3.40;;
26654;SDS011;14278;50.784;4.630;2023-04-08T12:01:10;5.40;;;3.67;;
26654;SDS011;14278;50.784;4.630;2023-04-08T12:03:36;4.03;;;2.87;;
26654;SDS011;14278;50.784;4.630;2023-04-08T12:06:03;4.47;;;3.00;;
26654;SDS011;14278;50.784;4.630;2023-04-08T12:08:29;3.77;;;3.23;;
26654;SDS011;14278;50.784;4.630;2023-04-08T12:10:55;4.50;;;2.90;;
26654;SDS011;14278;50.784;4.630;2023-04-08T12:13:21;5.20;;;3.03;;
26654;SDS011;14278;50.784;4.630;2023-04-08T12:15:47;4.37;;;3.00;;
26654;SDS011;14278;50.784;4.630;2023-04-08T12:18:13;2.70;;;2.50;;
26654;SDS011;14278;50.784;4.630;2023-04-08T12:20:40;3.53;;;3.07;;
26654;SDS011;14278;50.784;4.630;2023-04-08T12:23:06;5.93;;;3.37;;
26654;SDS011;14278;50.784;4.630;2023-04-08T12:25:32;9.30;;;3.60;;
26654;SDS011;14278;50.784;4.630;2023-04-08T12:27:58;4.13;;;3.37;;
26654;SDS011;14278;50.784;4.630;2023-04-08T12:30:24;3.17;;;2.63;;
26654;SDS011;14278;50.784;4.630;2023-04-08T12:32:50;3.67;;;2.73;;
26654;SDS011;14278;50.784;4.630;2023-04-08T12:35:19;3.17;;;2.87;;
26654;SDS011;14278;50.784;4.630;2023-04-08T12:37:45;7.83;;;3.33;;
26654;SDS011;14278;50.784;4.630;2023-04-08T12:40:11;4.53;;;3.50;;
26654;SDS011;14278;50.784;4.630;2023-04-08T12:42:37;3.23;;;2.93;;
26654;SDS011;14278;50.784;4.630;2023-04-08T12:45:03;6.60;;;3.10;;
26654;SDS011;14278;50.784;4.630;2023-04-08T12:47:29;3.27;;;2.70;;
26654;SDS011;14278;50.784;4.630;2023-04-08T12:49:55;3.40;;;3.10;;
26654;SDS011;14278;50.784;4.630;2023-04-08T12:52:21;5.30;;;3.23;;
26654;SDS011;14278;50.784;4.630;2023-04-08T12:54:48;4.40;;;3.20;;
26654;SDS011;14278;50.784;4.630;2023-04-08T12:57:14;5.13;;;3.70;;
26654;SDS011;14278;50.784;4.630;2023-04-08T12:59:40;5.10;;;3.57;;
26654;SDS011;14278;50.784;4.630;2023-04-08T13:02:06;4.17;;;3.43;;
26654;SDS011;14278;50.784;4.630;2023-04-08T13:04:32;9.23;;;3.90;;
26654;SDS011;14278;50.784;4.630;2023-04-08T13:06:58;5.83;;;3.63;;
26654;SDS011;14278;50.784;4.630;2023-04-08T13:09:25;14.30;;;6.33;;
26654;SDS011;14278;50.784;4.630;2023-04-08T13:11:50;4.63;;;3.80;;
26654;SDS011;14278;50.784;4.630;2023-04-08T13:14:17;3.50;;;3.20;;
26654;SDS011;14278;50.784;4.630;2023-04-08T13:16:43;3.67;;;3.27;;
26654;SDS011;14278;50.784;4.630;2023-04-08T13:19:09;9.33;;;5.23;;
26654;SDS011;14278;50.784;4.630;2023-04-08T13:21:35;9.30;;;4.90;;
26654;SDS011;14278;50.784;4.630;2023-04-08T13:24:00;8.70;;;4.77;;
26654;SDS011;14278;50.784;4.630;2023-04-08T13:26:27;6.17;;;4.70;;
26654;SDS011;14278;50.784;4.630;2023-04-08T13:28:52;6.47;;;4.57;;
26654;SDS011;14278;50.784;4.630;2023-04-08T13:31:19;6.63;;;4.63;;
26654;SDS011;14278;50.784;4.630;2023-04-08T13:33:45;6.80;;;4.60;;
26654;SDS011;14278;50.784;4.630;2023-04-08T13:36:10;6.93;;;5.20;;
26654;SDS011;14278;50.784;4.630;2023-04-08T13:38:37;8.77;;;5.03;;
26654;SDS011;14278;50.784;4.630;2023-04-08T13:41:02;9.50;;;5.27;;
26654;SDS011;14278;50.784;4.630;2023-04-08T13:43:29;6.93;;;5.13;;
26654;SDS011;14278;50.784;4.630;2023-04-08T13:45:55;9.97;;;4.93;;
26654;SDS011;14278;50.784;4.630;2023-04-08T13:48:21;6.80;;;4.77;;
26654;SDS011;14278;50.784;4.630;2023-04-08T13:50:47;5.73;;;4.07;;
26654;SDS011;14278;50.784;4.630;2023-04-08T13:53:13;8.10;;;4.60;;
26654;SDS011;14278;50.784;4.630;2023-04-08T13:55:40;10.00;;;4.80;;
26654;SDS011;14278;50.784;4.630;2023-04-08T13:58:05;4.43;;;4.00;;
26654;SDS011;14278;50.784;4.630;2023-04-08T14:00:31;5.40;;;4.10;;
26654;SDS011;14278;50.784;4.630;2023-04-08T14:02:58;11.93;;;6.23;;
26654;SDS011;14278;50.784;4.630;2023-04-08T14:05:23;6.83;;;4.47;;
26654;SDS011;14278;50.784;4.630;2023-04-08T14:07:50;7.50;;;4.87;;
26654;SDS011;14278;50.784;4.630;2023-04-08T14:10:16;3.80;;;3.50;;
26654;SDS011;14278;50.784;4.630;2023-04-08T14:12:42;7.53;;;5.03;;
26654;SDS011;14278;50.784;4.630;2023-04-08T14:15:08;7.07;;;4.50;;
26654;SDS011;14278;50.784;4.630;2023-04-08T14:17:34;4.97;;;4.17;;
26654;SDS011;14278;50.784;4.630;2023-04-08T14:20:01;5.67;;;4.37;;
26654;SDS011;14278;50.784;4.630;2023-04-08T14:22:27;11.90;;;4.63;;
26654;SDS011;14278;50.784;4.630;2023-04-08T14:24:53;8.90;;;6.07;;
26654;SDS011;14278;50.784;4.630;2023-04-08T14:27:19;6.70;;;5.67;;
26654;SDS011;14278;50.784;4.630;2023-04-08T14:29:45;12.70;;;6.10;;
26654;SDS011;14278;50.784;4.630;2023-04-08T14:32:11;9.00;;;6.17;;
26654;SDS011;14278;50.784;4.630;2023-04-08T14:34:37;11.17;;;6.93;;
26654;SDS011;14278;50.784;4.630;2023-04-08T14:37:03;9.10;;;6.57;;
26654;SDS011;14278;50.784;4.630;2023-04-08T14:39:30;9.27;;;7.13;;
26654;SDS011;14278;50.784;4.630;2023-04-08T14:41:55;11.20;;;6.47;;
26654;SDS011;14278;50.784;4.630;2023-04-08T14:44:22;10.97;;;6.23;;
26654;SDS011;14278;50.784;4.630;2023-04-08T14:46:48;12.20;;;6.67;;
26654;SDS011;14278;50.784;4.630;2023-04-08T14:49:14;10.50;;;7.33;;
26654;SDS011;14278;50.784;4.630;2023-04-08T14:51:40;8.37;;;6.13;;
26654;SDS011;14278;50.784;4.630;2023-04-08T14:54:06;10.47;;;6.83;;
26654;SDS011;14278;50.784;4.630;2023-04-08T14:56:32;10.33;;;6.47;;
26654;SDS011;14278;50.784;4.630;2023-04-08T14:58:58;6.70;;;5.87;;
26654;SDS011;14278;50.784;4.630;2023-04-08T15:01:24;7.97;;;6.27;;
26654;SDS011;14278;50.784;4.630;2023-04-08T15:03:50;6.30;;;5.70;;